sensor_id;sensor_type;location;lat;lon;timestamp;P1;durP1;ratioP1;P2;durP2;ratioP2
56039;SDS011;43937;41.366;2.072;2023-11-21T00:00:34;20.05;;;12.98;;
56039;SDS011;43937;41.366;2.072;2023-11-21T00:03:01;20.40;;;12.30;;
56039;SDS011;43937;41.366;2.072;2023-11-21T00:05:27;24.13;;;12.60;;
56039;SDS011;43937;41.366;2.072;2023-11-21T00:07:52;19.38;;;12.82;;
56039;SDS011;43937;41.366;2.072;2023-11-21T00:10:18;20.48;;;12.00;;
56039;SDS011;43937;41.366;2.072;2023-11-21T00:15:35;19.95;;;11.65;;
56039;SDS011;43937;41.366;2.072;2023-11-21T00:23:51;21.10;;;11.98;;
56039;SDS011;43937;41.366;2.072;2023-11-21T00:28:36;20.33;;;11.95;;
56039;SDS011;43937;41.366;2.072;2023-11-21T00:33:42;25.45;;;11.48;;
56039;SDS011;43937;41.366;2.072;2023-11-21T00:39:52;18.23;;;10.95;;
56039;SDS011;43937;41.366;2.072;2023-11-21T00:42:17;19.23;;;11.40;;
56039;SDS011;43937;41.366;2.072;2023-11-21T00:45:06;17.77;;;10.65;;
56039;SDS011;43937;41.366;2.072;2023-11-21T00:47:32;17.38;;;10.70;;
56039;SDS011;43937;41.366;2.072;2023-11-21T00:49:57;15.38;;;10.48;;
56039;SDS011;43937;41.366;2.072;2023-11-21T00:54:39;13.05;;;7.93;;
56039;SDS011;43937;41.366;2.072;2023-11-21T01:00:28;11.65;;;8.38;;
56039;SDS011;43937;41.366;2.072;2023-11-21T01:06:20;14.77;;;8.82;;
56039;SDS011;43937;41.366;2.072;2023-11-21T01:11:22;18.20;;;12.48;;
56039;SDS011;43937;41.366;2.072;2023-11-21T01:15:51;21.35;;;11.57;;
56039;SDS011;43937;41.366;2.072;2023-11-21T01:19:02;18.58;;;11.32;;
56039;SDS011;43937;41.366;2.072;2023-11-21T01:21:27;18.83;;;10.40;;
56039;SDS011;43937;41.366;2.072;2023-11-21T01:23:53;22.08;;;11.70;;
56039;SDS011;43937;41.366;2.072;2023-11-21T01:28:24;19.88;;;11.60;;
56039;SDS011;43937;41.366;2.072;2023-11-21T01:33:26;18.83;;;11.75;;
56039;SDS011;43937;41.366;2.072;2023-11-21T01:38:40;19.45;;;11.18;;
56039;SDS011;43937;41.366;2.072;2023-11-21T01:46:57;20.88;;;16.58;;
56039;SDS011;43937;41.366;2.072;2023-11-21T01:51:11;21.85;;;18.02;;
56039;SDS011;43937;41.366;2.072;2023-11-21T01:57:25;25.00;;;15.23;;
56039;SDS011;43937;41.366;2.072;2023-11-21T02:06:27;24.08;;;14.63;;
56039;SDS011;43937;41.366;2.072;2023-11-21T02:15:14;27.20;;;19.30;;
56039;SDS011;43937;41.366;2.072;2023-11-21T02:19:57;27.60;;;21.80;;
56039;SDS011;43937;41.366;2.072;2023-11-21T02:22:22;29.45;;;22.38;;
56039;SDS011;43937;41.366;2.072;2023-11-21T02:24:51;33.83;;;23.27;;
56039;SDS011;43937;41.366;2.072;2023-11-21T02:27:17;32.55;;;24.08;;
56039;SDS011;43937;41.366;2.072;2023-11-21T02:30:33;28.42;;;22.45;;
56039;SDS011;43937;41.366;2.072;2023-11-21T02:34:12;33.97;;;25.17;;
56039;SDS011;43937;41.366;2.072;2023-11-21T02:39:33;32.80;;;23.30;;
56039;SDS011;43937;41.366;2.072;2023-11-21T02:41:59;30.90;;;22.63;;
56039;SDS011;43937;41.366;2.072;2023-11-21T02:49:10;38.72;;;27.27;;
56039;SDS011;43937;41.366;2.072;2023-11-21T02:51:36;32.78;;;23.20;;
56039;SDS011;43937;41.366;2.072;2023-11-21T02:56:25;30.23;;;18.77;;
56039;SDS011;43937;41.366;2.072;2023-11-21T03:01:15;34.28;;;16.88;;
56039;SDS011;43937;41.366;2.072;2023-11-21T03:03:42;29.88;;;16.67;;
56039;SDS011;43937;41.366;2.072;2023-11-21T03:06:07;28.10;;;17.27;;
56039;SDS011;43937;41.366;2.072;2023-11-21T03:09:33;25.70;;;16.30;;
56039;SDS011;43937;41.366;2.072;2023-11-21T03:14:21;26.15;;;13.88;;
56039;SDS011;43937;41.366;2.072;2023-11-21T03:21:17;25.73;;;12.93;;
56039;SDS011;43937;41.366;2.072;2023-11-21T03:25:26;25.80;;;15.07;;
56039;SDS011;43937;41.366;2.072;2023-11-21T03:30:32;24.90;;;14.35;;
56039;SDS011;43937;41.366;2.072;2023-11-21T03:32:57;14.50;;;9.32;;
56039;SDS011;43937;41.366;2.072;2023-11-21T03:36:17;10.43;;;5.68;;
56039;SDS011;43937;41.366;2.072;2023-11-21T03:40:04;11.57;;;4.55;;
56039;SDS011;43937;41.366;2.072;2023-11-21T03:42:33;6.45;;;3.10;;
56039;SDS011;43937;41.366;2.072;2023-11-21T03:48:59;8.88;;;1.77;;
56039;SDS011;43937;41.366;2.072;2023-11-21T03:51:24;5.05;;;2.00;;
56039;SDS011;43937;41.366;2.072;2023-11-21T03:54:49;9.38;;;1.90;;
56039;SDS011;43937;41.366;2.072;2023-11-21T03:57:15;2.45;;;1.20;;
56039;SDS011;43937;41.366;2.072;2023-11-21T03:59:40;8.70;;;1.40;;
56039;SDS011;43937;41.366;2.072;2023-11-21T04:02:06;7.47;;;0.82;;
56039;SDS011;43937;41.366;2.072;2023-11-21T04:04:43;9.10;;;1.30;;
56039;SDS011;43937;41.366;2.072;2023-11-21T04:07:09;5.05;;;0.88;;
56039;SDS011;43937;41.366;2.072;2023-11-21T04:15:14;5.07;;;0.50;;
56039;SDS011;43937;41.366;2.072;2023-11-21T04:17:40;3.22;;;0.43;;
56039;SDS011;43937;41.366;2.072;2023-11-21T04:20:06;5.40;;;0.50;;
56039;SDS011;43937;41.366;2.072;2023-11-21T04:23:39;2.25;;;0.38;;
56039;SDS011;43937;41.366;2.072;2023-11-21T04:26:05;1.60;;;0.60;;
56039;SDS011;43937;41.366;2.072;2023-11-21T04:30:57;8.75;;;0.70;;
56039;SDS011;43937;41.366;2.072;2023-11-21T04:35:48;6.15;;;0.68;;
56039;SDS011;43937;41.366;2.072;2023-11-21T04:44:08;2.15;;;0.50;;
56039;SDS011;43937;41.366;2.072;2023-11-21T04:46:34;2.55;;;0.68;;
56039;SDS011;43937;41.366;2.072;2023-11-21T04:48:59;1.35;;;0.60;;
56039;SDS011;43937;41.366;2.072;2023-11-21T04:56:01;4.85;;;0.50;;
56039;SDS011;43937;41.366;2.072;2023-11-21T04:59:11;3.78;;;0.90;;
56039;SDS011;43937;41.366;2.072;2023-11-21T05:06:28;2.88;;;0.75;;
56039;SDS011;43937;41.366;2.072;2023-11-21T05:11:24;2.95;;;0.93;;
56039;SDS011;43937;41.366;2.072;2023-11-21T05:13:50;2.30;;;0.60;;
56039;SDS011;43937;41.366;2.072;2023-11-21T05:25:11;8.82;;;0.95;;
56039;SDS011;43937;41.366;2.072;2023-11-21T05:34:44;3.95;;;1.20;;
56039;SDS011;43937;41.366;2.072;2023-11-21T05:37:09;4.28;;;1.25;;
56039;SDS011;43937;41.366;2.072;2023-11-21T05:39:35;5.47;;;1.20;;
56039;SDS011;43937;41.366;2.072;2023-11-21T05:53:20;4.18;;;1.30;;
56039;SDS011;43937;41.366;2.072;2023-11-21T06:00:25;4.15;;;1.35;;
56039;SDS011;43937;41.366;2.072;2023-11-21T06:06:46;3.83;;;1.77;;
56039;SDS011;43937;41.366;2.072;2023-11-21T06:09:31;4.97;;;1.52;;
56039;SDS011;43937;41.366;2.072;2023-11-21T06:13:12;4.22;;;1.65;;
56039;SDS011;43937;41.366;2.072;2023-11-21T06:19:24;9.50;;;1.67;;
56039;SDS011;43937;41.366;2.072;2023-11-21T06:23:22;5.47;;;1.70;;
56039;SDS011;43937;41.366;2.072;2023-11-21T06:26:53;6.28;;;1.60;;
56039;SDS011;43937;41.366;2.072;2023-11-21T06:34:06;6.70;;;1.80;;
56039;SDS011;43937;41.366;2.072;2023-11-21T06:37:20;4.63;;;1.85;;
56039;SDS011;43937;41.366;2.072;2023-11-21T06:39:51;6.25;;;2.60;;
56039;SDS011;43937;41.366;2.072;2023-11-21T06:43:29;4.93;;;2.00;;
56039;SDS011;43937;41.366;2.072;2023-11-21T06:45:58;6.13;;;1.90;;
56039;SDS011;43937;41.366;2.072;2023-11-21T06:51:29;9.82;;;2.10;;
56039;SDS011;43937;41.366;2.072;2023-11-21T06:56:15;9.40;;;1.88;;
56039;SDS011;43937;41.366;2.072;2023-11-21T06:58:42;7.32;;;1.60;;
56039;SDS011;43937;41.366;2.072;2023-11-21T07:01:08;8.82;;;1.67;;
56039;SDS011;43937;41.366;2.072;2023-11-21T07:03:46;7.20;;;1.25;;
56039;SDS011;43937;41.366;2.072;2023-11-21T07:06:12;7.82;;;1.20;;
56039;SDS011;43937;41.366;2.072;2023-11-21T07:08:37;8.25;;;1.88;;
56039;SDS011;43937;41.366;2.072;2023-11-21T07:24:10;8.13;;;1.90;;
56039;SDS011;43937;41.366;2.072;2023-11-21T07:26:36;9.90;;;1.63;;
56039;SDS011;43937;41.366;2.072;2023-11-21T07:29:02;8.30;;;1.48;;
56039;SDS011;43937;41.366;2.072;2023-11-21T07:31:28;9.30;;;1.65;;
56039;SDS011;43937;41.366;2.072;2023-11-21T07:37:34;10.35;;;1.70;;
56039;SDS011;43937;41.366;2.072;2023-11-21T07:40:55;10.88;;;1.48;;
56039;SDS011;43937;41.366;2.072;2023-11-21T07:43:20;22.75;;;2.97;;
56039;SDS011;43937;41.366;2.072;2023-11-21T07:47:20;18.38;;;2.35;;
56039;SDS011;43937;41.366;2.072;2023-11-21T07:56:52;9.57;;;2.08;;
56039;SDS011;43937;41.366;2.072;2023-11-21T08:08:22;5.15;;;1.30;;
56039;SDS011;43937;41.366;2.072;2023-11-21T08:13:43;7.20;;;1.40;;
56039;SDS011;43937;41.366;2.072;2023-11-21T08:26:54;9.40;;;1.60;;
56039;SDS011;43937;41.366;2.072;2023-11-21T08:29:20;8.27;;;1.63;;
56039;SDS011;43937;41.366;2.072;2023-11-21T08:33:25;8.30;;;1.67;;
56039;SDS011;43937;41.366;2.072;2023-11-21T08:38:47;6.30;;;1.38;;
56039;SDS011;43937;41.366;2.072;2023-11-21T08:41:13;8.85;;;1.70;;
56039;SDS011;43937;41.366;2.072;2023-11-21T08:46:22;10.73;;;2.90;;
56039;SDS011;43937;41.366;2.072;2023-11-21T08:52:49;17.92;;;4.50;;
56039;SDS011;43937;41.366;2.072;2023-11-21T08:55:16;9.95;;;4.25;;
56039;SDS011;43937;41.366;2.072;2023-11-21T09:00:57;18.25;;;3.47;;
56039;SDS011;43937;41.366;2.072;2023-11-21T09:05:57;8.35;;;2.92;;
56039;SDS011;43937;41.366;2.072;2023-11-21T09:08:23;17.73;;;5.07;;
56039;SDS011;43937;41.366;2.072;2023-11-21T09:10:57;8.27;;;2.60;;
56039;SDS011;43937;41.366;2.072;2023-11-21T09:13:23;9.07;;;3.38;;
56039;SDS011;43937;41.366;2.072;2023-11-21T09:15:50;10.43;;;3.17;;
56039;SDS011;43937;41.366;2.072;2023-11-21T09:18:16;14.43;;;2.95;;
56039;SDS011;43937;41.366;2.072;2023-11-21T09:20:42;14.50;;;3.00;;
56039;SDS011;43937;41.366;2.072;2023-11-21T09:23:56;13.50;;;3.00;;
56039;SDS011;43937;41.366;2.072;2023-11-21T09:28:32;12.77;;;3.72;;
56039;SDS011;43937;41.366;2.072;2023-11-21T09:36:28;12.18;;;4.10;;
56039;SDS011;43937;41.366;2.072;2023-11-21T09:39:34;15.13;;;3.55;;
56039;SDS011;43937;41.366;2.072;2023-11-21T09:46:27;14.57;;;3.75;;
56039;SDS011;43937;41.366;2.072;2023-11-21T09:48:53;16.80;;;3.53;;
56039;SDS011;43937;41.366;2.072;2023-11-21T09:57:59;9.23;;;2.78;;
56039;SDS011;43937;41.366;2.072;2023-11-21T10:02:58;8.20;;;2.20;;
56039;SDS011;43937;41.366;2.072;2023-11-21T10:05:25;9.65;;;2.30;;
56039;SDS011;43937;41.366;2.072;2023-11-21T10:07:51;6.70;;;2.75;;
56039;SDS011;43937;41.366;2.072;2023-11-21T10:12:04;7.47;;;2.10;;
56039;SDS011;43937;41.366;2.072;2023-11-21T10:25:56;5.13;;;2.10;;
56039;SDS011;43937;41.366;2.072;2023-11-21T10:28:40;3.72;;;2.17;;
56039;SDS011;43937;41.366;2.072;2023-11-21T10:31:06;6.80;;;2.13;;
56039;SDS011;43937;41.366;2.072;2023-11-21T10:35:58;3.92;;;1.73;;
56039;SDS011;43937;41.366;2.072;2023-11-21T10:39:25;4.05;;;1.90;;
56039;SDS011;43937;41.366;2.072;2023-11-21T10:41:55;3.60;;;1.92;;
56039;SDS011;43937;41.366;2.072;2023-11-21T10:45:17;5.40;;;2.03;;
56039;SDS011;43937;41.366;2.072;2023-11-21T10:51:10;4.28;;;1.33;;
56039;SDS011;43937;41.366;2.072;2023-11-21T10:59:14;7.65;;;1.27;;
56039;SDS011;43937;41.366;2.072;2023-11-21T11:04:48;4.07;;;1.42;;
56039;SDS011;43937;41.366;2.072;2023-11-21T11:10:41;7.07;;;1.40;;
56039;SDS011;43937;41.366;2.072;2023-11-21T11:13:07;6.03;;;1.20;;
56039;SDS011;43937;41.366;2.072;2023-11-21T11:17:15;5.47;;;1.10;;
56039;SDS011;43937;41.366;2.072;2023-11-21T11:24:12;4.78;;;1.20;;
56039;SDS011;43937;41.366;2.072;2023-11-21T11:34:34;2.35;;;0.90;;
56039;SDS011;43937;41.366;2.072;2023-11-21T11:38:11;4.50;;;1.35;;
56039;SDS011;43937;41.366;2.072;2023-11-21T11:54:00;7.63;;;1.50;;
56039;SDS011;43937;41.366;2.072;2023-11-21T12:01:44;5.32;;;2.10;;
56039;SDS011;43937;41.366;2.072;2023-11-21T12:10:15;6.82;;;2.28;;
56039;SDS011;43937;41.366;2.072;2023-11-21T12:15:22;12.50;;;3.10;;
56039;SDS011;43937;41.366;2.072;2023-11-21T12:20:18;12.90;;;3.35;;
56039;SDS011;43937;41.366;2.072;2023-11-21T12:25:12;9.07;;;4.38;;
56039;SDS011;43937;41.366;2.072;2023-11-21T12:27:41;9.63;;;4.50;;
56039;SDS011;43937;41.366;2.072;2023-11-21T12:34:48;9.63;;;2.78;;
56039;SDS011;43937;41.366;2.072;2023-11-21T12:37:14;11.57;;;2.80;;
56039;SDS011;43937;41.366;2.072;2023-11-21T12:41:33;8.23;;;2.00;;
56039;SDS011;43937;41.366;2.072;2023-11-21T12:47:34;8.07;;;2.25;;
56039;SDS011;43937;41.366;2.072;2023-11-21T12:52:11;8.23;;;1.90;;
56039;SDS011;43937;41.366;2.072;2023-11-21T12:55:55;7.22;;;2.25;;
56039;SDS011;43937;41.366;2.072;2023-11-21T12:58:22;8.05;;;2.42;;
56039;SDS011;43937;41.366;2.072;2023-11-21T13:02:32;13.45;;;3.03;;
56039;SDS011;43937;41.366;2.072;2023-11-21T13:07:19;6.20;;;1.85;;
56039;SDS011;43937;41.366;2.072;2023-11-21T13:09:45;13.15;;;2.10;;
56039;SDS011;43937;41.366;2.072;2023-11-21T13:12:11;7.07;;;1.50;;
56039;SDS011;43937;41.366;2.072;2023-11-21T13:16:14;6.72;;;1.63;;
56039;SDS011;43937;41.366;2.072;2023-11-21T13:20:34;6.50;;;1.17;;
56039;SDS011;43937;41.366;2.072;2023-11-21T13:23:20;5.88;;;1.35;;
56039;SDS011;43937;41.366;2.072;2023-11-21T13:25:47;5.53;;;1.10;;
56039;SDS011;43937;41.366;2.072;2023-11-21T13:32:38;7.60;;;1.33;;
56039;SDS011;43937;41.366;2.072;2023-11-21T13:35:05;5.13;;;1.35;;
56039;SDS011;43937;41.366;2.072;2023-11-21T13:37:33;3.40;;;1.25;;
56039;SDS011;43937;41.366;2.072;2023-11-21T13:39:59;4.80;;;1.35;;
56039;SDS011;43937;41.366;2.072;2023-11-21T13:46:15;5.25;;;1.20;;
56039;SDS011;43937;41.366;2.072;2023-11-21T13:48:46;4.38;;;1.10;;
56039;SDS011;43937;41.366;2.072;2023-11-21T13:54:20;3.88;;;1.10;;
56039;SDS011;43937;41.366;2.072;2023-11-21T13:56:48;5.10;;;1.20;;
56039;SDS011;43937;41.366;2.072;2023-11-21T14:00:08;3.63;;;1.10;;
56039;SDS011;43937;41.366;2.072;2023-11-21T14:06:33;6.53;;;1.30;;
56039;SDS011;43937;41.366;2.072;2023-11-21T14:10:22;6.47;;;1.10;;
56039;SDS011;43937;41.366;2.072;2023-11-21T14:16:44;5.32;;;1.27;;
56039;SDS011;43937;41.366;2.072;2023-11-21T14:21:10;6.20;;;1.00;;
56039;SDS011;43937;41.366;2.072;2023-11-21T14:23:36;9.07;;;1.10;;
56039;SDS011;43937;41.366;2.072;2023-11-21T14:27:27;4.88;;;1.20;;
56039;SDS011;43937;41.366;2.072;2023-11-21T14:29:53;4.15;;;1.25;;
56039;SDS011;43937;41.366;2.072;2023-11-21T14:37:24;8.30;;;1.20;;
56039;SDS011;43937;41.366;2.072;2023-11-21T14:41:09;2.95;;;1.10;;
56039;SDS011;43937;41.366;2.072;2023-11-21T14:43:36;5.03;;;1.20;;
56039;SDS011;43937;41.366;2.072;2023-11-21T14:48:36;8.45;;;1.70;;
56039;SDS011;43937;41.366;2.072;2023-11-21T14:51:41;5.38;;;1.10;;
56039;SDS011;43937;41.366;2.072;2023-11-21T14:54:30;3.67;;;1.25;;
56039;SDS011;43937;41.366;2.072;2023-11-21T14:57:10;7.90;;;1.40;;
56039;SDS011;43937;41.366;2.072;2023-11-21T15:00:20;3.58;;;1.30;;
56039;SDS011;43937;41.366;2.072;2023-11-21T15:04:51;5.60;;;1.50;;
56039;SDS011;43937;41.366;2.072;2023-11-21T15:09:50;4.22;;;1.33;;
56039;SDS011;43937;41.366;2.072;2023-11-21T15:15:59;3.83;;;1.10;;
56039;SDS011;43937;41.366;2.072;2023-11-21T15:18:32;6.10;;;1.27;;
56039;SDS011;43937;41.366;2.072;2023-11-21T15:21:56;4.90;;;0.98;;
56039;SDS011;43937;41.366;2.072;2023-11-21T15:24:23;5.28;;;1.60;;
56039;SDS011;43937;41.366;2.072;2023-11-21T15:26:49;6.22;;;1.25;;
56039;SDS011;43937;41.366;2.072;2023-11-21T15:30:11;4.65;;;1.50;;
56039;SDS011;43937;41.366;2.072;2023-11-21T15:32:37;8.85;;;1.80;;
56039;SDS011;43937;41.366;2.072;2023-11-21T15:37:26;14.80;;;2.40;;
56039;SDS011;43937;41.366;2.072;2023-11-21T15:42:40;8.65;;;1.77;;
56039;SDS011;43937;41.366;2.072;2023-11-21T15:45:06;7.40;;;2.00;;
56039;SDS011;43937;41.366;2.072;2023-11-21T15:47:33;9.70;;;1.90;;
56039;SDS011;43937;41.366;2.072;2023-11-21T15:50:40;10.65;;;2.13;;
56039;SDS011;43937;41.366;2.072;2023-11-21T15:53:06;5.78;;;2.50;;
56039;SDS011;43937;41.366;2.072;2023-11-21T15:55:32;12.93;;;3.70;;
56039;SDS011;43937;41.366;2.072;2023-11-21T15:57:59;11.07;;;3.78;;
56039;SDS011;43937;41.366;2.072;2023-11-21T16:00:27;11.27;;;2.63;;
56039;SDS011;43937;41.366;2.072;2023-11-21T16:02:52;12.63;;;2.25;;
56039;SDS011;43937;41.366;2.072;2023-11-21T16:07:24;11.60;;;1.95;;
56039;SDS011;43937;41.366;2.072;2023-11-21T16:14:13;7.80;;;1.52;;
56039;SDS011;43937;41.366;2.072;2023-11-21T16:17:58;10.13;;;2.00;;
56039;SDS011;43937;41.366;2.072;2023-11-21T16:20:24;6.32;;;1.55;;
56039;SDS011;43937;41.366;2.072;2023-11-21T16:25:27;9.15;;;1.45;;
56039;SDS011;43937;41.366;2.072;2023-11-21T16:29:41;7.13;;;1.40;;
56039;SDS011;43937;41.366;2.072;2023-11-21T16:32:07;7.55;;;1.58;;
56039;SDS011;43937;41.366;2.072;2023-11-21T16:37:21;6.43;;;2.20;;
56039;SDS011;43937;41.366;2.072;2023-11-21T16:39:46;8.75;;;1.85;;
56039;SDS011;43937;41.366;2.072;2023-11-21T16:42:12;6.18;;;2.00;;
56039;SDS011;43937;41.366;2.072;2023-11-21T16:47:04;7.15;;;2.20;;
56039;SDS011;43937;41.366;2.072;2023-11-21T16:50:38;12.50;;;2.40;;
56039;SDS011;43937;41.366;2.072;2023-11-21T16:55:20;11.63;;;2.28;;
56039;SDS011;43937;41.366;2.072;2023-11-21T17:07:56;14.15;;;2.83;;
56039;SDS011;43937;41.366;2.072;2023-11-21T17:10:21;11.45;;;2.80;;
56039;SDS011;43937;41.366;2.072;2023-11-21T17:12:47;11.20;;;2.78;;
56039;SDS011;43937;41.366;2.072;2023-11-21T17:18:25;14.00;;;3.30;;
56039;SDS011;43937;41.366;2.072;2023-11-21T17:20:50;9.85;;;3.33;;
56039;SDS011;43937;41.366;2.072;2023-11-21T17:24:33;14.50;;;2.85;;
56039;SDS011;43937;41.366;2.072;2023-11-21T17:30:38;7.88;;;2.72;;
56039;SDS011;43937;41.366;2.072;2023-11-21T17:33:03;13.75;;;3.05;;
56039;SDS011;43937;41.366;2.072;2023-11-21T17:46:18;32.63;;;6.55;;
56039;SDS011;43937;41.366;2.072;2023-11-21T17:55:06;9.60;;;3.30;;
56039;SDS011;43937;41.366;2.072;2023-11-21T17:58:15;9.23;;;3.25;;
56039;SDS011;43937;41.366;2.072;2023-11-21T18:00:41;13.60;;;3.35;;
56039;SDS011;43937;41.366;2.072;2023-11-21T18:03:06;14.05;;;3.78;;
56039;SDS011;43937;41.366;2.072;2023-11-21T18:06:31;10.20;;;2.85;;
56039;SDS011;43937;41.366;2.072;2023-11-21T18:08:58;15.85;;;3.70;;
56039;SDS011;43937;41.366;2.072;2023-11-21T18:11:24;12.25;;;3.45;;
56039;SDS011;43937;41.366;2.072;2023-11-21T18:13:50;17.88;;;4.07;;
56039;SDS011;43937;41.366;2.072;2023-11-21T18:16:15;12.57;;;4.10;;
56039;SDS011;43937;41.366;2.072;2023-11-21T18:23:40;12.93;;;4.40;;
56039;SDS011;43937;41.366;2.072;2023-11-21T18:27:51;17.85;;;5.72;;
56039;SDS011;43937;41.366;2.072;2023-11-21T18:33:12;17.75;;;5.90;;
56039;SDS011;43937;41.366;2.072;2023-11-21T18:40:32;23.13;;;5.75;;
56039;SDS011;43937;41.366;2.072;2023-11-21T18:50:53;13.88;;;3.80;;
56039;SDS011;43937;41.366;2.072;2023-11-21T18:55:24;15.10;;;3.38;;
56039;SDS011;43937;41.366;2.072;2023-11-21T18:57:50;14.43;;;3.60;;
56039;SDS011;43937;41.366;2.072;2023-11-21T19:09:32;15.73;;;5.43;;
56039;SDS011;43937;41.366;2.072;2023-11-21T19:12:00;25.50;;;5.20;;
56039;SDS011;43937;41.366;2.072;2023-11-21T19:17:56;14.90;;;4.60;;
56039;SDS011;43937;41.366;2.072;2023-11-21T19:20:35;14.85;;;3.95;;
56039;SDS011;43937;41.366;2.072;2023-11-21T19:26:15;15.88;;;4.07;;
56039;SDS011;43937;41.366;2.072;2023-11-21T19:28:41;18.70;;;4.70;;
56039;SDS011;43937;41.366;2.072;2023-11-21T19:31:06;12.68;;;4.22;;
56039;SDS011;43937;41.366;2.072;2023-11-21T19:33:40;14.23;;;5.05;;
56039;SDS011;43937;41.366;2.072;2023-11-21T19:44:15;10.38;;;3.13;;
56039;SDS011;43937;41.366;2.072;2023-11-21T19:46:41;12.95;;;3.35;;
56039;SDS011;43937;41.366;2.072;2023-11-21T19:51:33;11.90;;;3.95;;
56039;SDS011;43937;41.366;2.072;2023-11-21T20:01:42;14.23;;;4.63;;
56039;SDS011;43937;41.366;2.072;2023-11-21T20:06:37;10.05;;;3.70;;
56039;SDS011;43937;41.366;2.072;2023-11-21T20:09:14;18.80;;;3.80;;
56039;SDS011;43937;41.366;2.072;2023-11-21T20:12:52;6.85;;;2.10;;
56039;SDS011;43937;41.366;2.072;2023-11-21T20:16:23;5.18;;;2.08;;
56039;SDS011;43937;41.366;2.072;2023-11-21T20:20:29;4.85;;;2.40;;
56039;SDS011;43937;41.366;2.072;2023-11-21T20:24:05;6.80;;;2.28;;
56039;SDS011;43937;41.366;2.072;2023-11-21T20:28:57;9.77;;;3.15;;
56039;SDS011;43937;41.366;2.072;2023-11-21T20:31:25;5.30;;;1.83;;
56039;SDS011;43937;41.366;2.072;2023-11-21T20:36:22;7.65;;;2.30;;
56039;SDS011;43937;41.366;2.072;2023-11-21T20:38:48;6.03;;;1.80;;
56039;SDS011;43937;41.366;2.072;2023-11-21T20:44:26;4.72;;;1.90;;
56039;SDS011;43937;41.366;2.072;2023-11-21T20:48:22;5.80;;;2.25;;
56039;SDS011;43937;41.366;2.072;2023-11-21T20:58:55;19.77;;;7.32;;
56039;SDS011;43937;41.366;2.072;2023-11-21T21:01:22;21.27;;;7.38;;
56039;SDS011;43937;41.366;2.072;2023-11-21T21:11:02;18.40;;;5.63;;
56039;SDS011;43937;41.366;2.072;2023-11-21T21:13:28;17.15;;;5.50;;
56039;SDS011;43937;41.366;2.072;2023-11-21T21:17:58;8.15;;;3.10;;
56039;SDS011;43937;41.366;2.072;2023-11-21T21:21:06;7.00;;;1.73;;
56039;SDS011;43937;41.366;2.072;2023-11-21T21:25:45;10.20;;;3.20;;
56039;SDS011;43937;41.366;2.072;2023-11-21T21:28:46;7.43;;;4.43;;
56039;SDS011;43937;41.366;2.072;2023-11-21T21:33:43;5.03;;;2.78;;
56039;SDS011;43937;41.366;2.072;2023-11-21T21:36:43;4.35;;;2.22;;
56039;SDS011;43937;41.366;2.072;2023-11-21T21:40:39;2.80;;;2.00;;
56039;SDS011;43937;41.366;2.072;2023-11-21T21:50:20;4.55;;;2.25;;
56039;SDS011;43937;41.366;2.072;2023-11-21T21:53:36;4.68;;;1.35;;
56039;SDS011;43937;41.366;2.072;2023-11-21T21:59:19;3.83;;;1.20;;
56039;SDS011;43937;41.366;2.072;2023-11-21T22:08:09;10.13;;;1.65;;
56039;SDS011;43937;41.366;2.072;2023-11-21T22:13:35;2.70;;;1.02;;
56039;SDS011;43937;41.366;2.072;2023-11-21T22:26:37;4.47;;;0.90;;
56039;SDS011;43937;41.366;2.072;2023-11-21T22:29:48;3.88;;;0.88;;
56039;SDS011;43937;41.366;2.072;2023-11-21T22:33:43;8.30;;;1.10;;
56039;SDS011;43937;41.366;2.072;2023-11-21T22:36:58;4.07;;;0.93;;
56039;SDS011;43937;41.366;2.072;2023-11-21T22:49:52;1.75;;;0.63;;
56039;SDS011;43937;41.366;2.072;2023-11-21T22:52:19;2.67;;;0.77;;
56039;SDS011;43937;41.366;2.072;2023-11-21T22:55:02;10.02;;;0.90;;
56039;SDS011;43937;41.366;2.072;2023-11-21T22:58:08;2.17;;;0.90;;
56039;SDS011;43937;41.366;2.072;2023-11-21T23:01:07;5.30;;;0.70;;
56039;SDS011;43937;41.366;2.072;2023-11-21T23:04:39;3.90;;;0.80;;
56039;SDS011;43937;41.366;2.072;2023-11-21T23:09:13;1.77;;;0.70;;
56039;SDS011;43937;41.366;2.072;2023-11-21T23:11:41;3.83;;;0.70;;
56039;SDS011;43937;41.366;2.072;2023-11-21T23:18:25;2.63;;;0.63;;
56039;SDS011;43937;41.366;2.072;2023-11-21T23:20:56;3.30;;;0.70;;
56039;SDS011;43937;41.366;2.072;2023-11-21T23:27:07;4.28;;;0.52;;
56039;SDS011;43937;41.366;2.072;2023-11-21T23:33:13;2.28;;;0.50;;
56039;SDS011;43937;41.366;2.072;2023-11-21T23:37:15;4.45;;;0.70;;
56039;SDS011;43937;41.366;2.072;2023-11-21T23:47:10;1.80;;;0.50;;
56039;SDS011;43937;41.366;2.072;2023-11-21T23:50:56;1.23;;;0.50;;
